createdAt,value
2022-10-21T00:02:08.230Z,5.60
2022-10-21T00:04:35.859Z,5.35
2022-10-21T00:07:03.440Z,4.97
2022-10-21T00:09:31.091Z,5.47
2022-10-21T00:11:58.674Z,6.00
2022-10-21T00:14:27.626Z,5.22
2022-10-21T00:16:55.261Z,5.15
2022-10-21T00:19:23.031Z,6.15
2022-10-21T00:21:50.728Z,4.90
2022-10-21T00:24:18.289Z,6.15
2022-10-21T00:26:45.937Z,5.93
2022-10-21T00:29:13.550Z,4.75
2022-10-21T00:31:42.662Z,5.38
2022-10-21T00:34:10.271Z,5.68
2022-10-21T00:36:37.843Z,3.95
2022-10-21T00:39:05.517Z,4.05
2022-10-21T00:41:33.109Z,4.32
2022-10-21T00:44:01.906Z,4.05
2022-10-21T00:46:33.444Z,5.00
2022-10-21T00:49:03.343Z,3.85
2022-10-21T00:51:31.632Z,3.60
2022-10-21T00:54:00.039Z,3.72
2022-10-21T00:56:29.477Z,3.60
2022-10-21T00:58:58.776Z,3.25
2022-10-21T01:01:26.433Z,3.53
2022-10-21T01:03:54.219Z,3.20
2022-10-21T01:06:24.203Z,3.45
2022-10-21T01:08:54.489Z,2.72
2022-10-21T01:11:23.226Z,2.78
2022-10-21T01:13:55.925Z,3.38
2022-10-21T01:16:27.747Z,3.25
2022-10-21T01:19:00.155Z,3.17
2022-10-21T01:21:33.443Z,3.35
2022-10-21T01:24:11.631Z,3.13
2022-10-21T01:26:56.659Z,3.17
2022-10-21T01:29:41.183Z,3.25
2022-10-21T01:32:15.351Z,2.90
2022-10-21T01:34:46.088Z,3.45
2022-10-21T01:37:17.954Z,2.63
2022-10-21T01:39:47.206Z,2.85
2022-10-21T01:42:18.088Z,3.72
2022-10-21T01:44:52.026Z,2.78
2022-10-21T01:47:23.704Z,3.88
2022-10-21T01:49:53.664Z,2.70
2022-10-21T01:52:21.792Z,3.42
2022-10-21T01:54:54.354Z,2.78
2022-10-21T01:57:23.665Z,3.45
2022-10-21T01:59:52.304Z,2.95
2022-10-21T02:02:21.522Z,3.92
2022-10-21T02:04:51.224Z,3.15
2022-10-21T02:07:18.821Z,3.40
2022-10-21T02:09:46.581Z,3.05
2022-10-21T02:12:14.673Z,3.08
2022-10-21T02:14:43.468Z,3.30
2022-10-21T02:17:12.429Z,3.60
2022-10-21T02:19:41.411Z,3.30
2022-10-21T02:22:10.987Z,3.60
2022-10-21T02:24:40.317Z,3.15
2022-10-21T02:27:07.987Z,3.65
2022-10-21T02:29:37.553Z,3.28
2022-10-21T02:32:10.488Z,3.15
2022-10-21T02:34:44.625Z,3.05
2022-10-21T02:37:16.076Z,3.17
2022-10-21T02:39:45.659Z,3.15
2022-10-21T02:42:14.725Z,2.55
2022-10-21T02:44:42.403Z,2.90
2022-10-21T02:49:44.336Z,3.65
2022-10-21T02:52:11.977Z,3.08
2022-10-21T02:54:39.816Z,2.92
2022-10-21T02:57:07.440Z,3.63
2022-10-21T02:59:35.025Z,3.20
2022-10-21T03:02:02.788Z,3.13
2022-10-21T03:04:30.367Z,3.50
2022-10-21T03:06:59.315Z,4.53
2022-10-21T03:09:26.871Z,2.80
2022-10-21T03:11:54.532Z,2.72
2022-10-21T03:14:22.282Z,3.17
2022-10-21T03:16:49.898Z,2.15
2022-10-21T03:19:17.520Z,2.53
2022-10-21T03:21:45.107Z,3.22
2022-10-21T03:24:24.959Z,3.55
2022-10-21T03:26:55.851Z,3.08
2022-10-21T03:29:23.676Z,2.88
2022-10-21T03:31:51.284Z,2.90
2022-10-21T03:34:18.893Z,3.15
2022-10-21T03:36:46.482Z,2.67
2022-10-21T03:39:15.686Z,3.45
2022-10-21T03:41:43.281Z,2.83
2022-10-21T03:44:11.094Z,2.67
2022-10-21T03:46:38.790Z,3.05
2022-10-21T03:49:10.167Z,3.53
2022-10-21T03:54:09.087Z,3.42
2022-10-21T03:56:38.038Z,2.70
2022-10-21T03:59:05.665Z,2.40
2022-10-21T04:01:33.334Z,3.15
2022-10-21T04:04:03.954Z,3.10
2022-10-21T04:06:31.613Z,3.47
2022-10-21T04:08:59.259Z,3.03
2022-10-21T04:11:26.877Z,3.05
2022-10-21T04:13:55.828Z,3.00
2022-10-21T04:16:23.783Z,2.75
2022-10-21T04:18:51.395Z,2.70
2022-10-21T04:21:19.053Z,2.72
2022-10-21T04:23:49.780Z,2.72
2022-10-21T04:26:17.403Z,3.15
2022-10-21T04:28:45.144Z,3.35
2022-10-21T04:31:14.069Z,2.97
2022-10-21T04:33:43.929Z,2.42
2022-10-21T04:36:11.530Z,4.00
2022-10-21T04:38:39.120Z,2.85
2022-10-21T04:41:06.734Z,2.97
2022-10-21T04:43:34.358Z,2.72
2022-10-21T04:46:02.042Z,3.10
2022-10-21T04:48:30.989Z,3.30
2022-10-21T04:50:58.568Z,2.60
2022-10-21T04:53:26.237Z,2.78
2022-10-21T04:55:54.340Z,3.22
2022-10-21T04:58:22.716Z,3.47
2022-10-21T05:00:50.459Z,2.95
2022-10-21T05:03:18.206Z,2.63
2022-10-21T05:05:49.658Z,2.58
2022-10-21T05:08:17.282Z,3.00
2022-10-21T05:10:44.934Z,2.65
2022-10-21T05:13:12.499Z,3.28
2022-10-21T05:15:40.357Z,2.75
2022-10-21T05:18:07.927Z,3.17
2022-10-21T05:20:35.565Z,2.83
2022-10-21T05:23:04.498Z,3.17
2022-10-21T05:25:34.292Z,3.05
2022-10-21T05:28:02.248Z,3.30
2022-10-21T05:30:29.937Z,3.80
2022-10-21T05:32:57.829Z,3.63
2022-10-21T05:35:25.470Z,3.38
2022-10-21T05:37:53.102Z,3.63
2022-10-21T05:40:22.324Z,4.10
2022-10-21T05:42:50.159Z,3.53
2022-10-21T05:45:17.801Z,3.08
2022-10-21T05:47:45.395Z,3.38
2022-10-21T05:50:13.858Z,3.05
2022-10-21T05:52:42.147Z,3.00
2022-10-21T05:55:10.238Z,3.63
2022-10-21T05:57:39.803Z,3.78
2022-10-21T06:00:08.224Z,3.40
2022-10-21T06:02:37.400Z,2.97
2022-10-21T06:05:05.509Z,2.92
2022-10-21T06:07:33.122Z,3.33
2022-10-21T06:10:00.728Z,3.70
2022-10-21T06:12:28.292Z,5.18
2022-10-21T06:14:57.383Z,3.92
2022-10-21T06:17:24.968Z,3.83
2022-10-21T06:19:52.657Z,3.75
2022-10-21T06:22:20.388Z,3.47
2022-10-21T06:24:48.225Z,3.67
2022-10-21T06:27:15.907Z,3.22
2022-10-21T06:29:43.552Z,3.65
2022-10-21T06:32:13.126Z,3.67
2022-10-21T06:34:40.851Z,3.72
2022-10-21T06:37:08.686Z,5.22
2022-10-21T06:39:36.341Z,3.80
2022-10-21T06:42:04.022Z,3.80
2022-10-21T06:44:31.642Z,3.58
2022-10-21T06:46:59.285Z,3.22
2022-10-21T06:49:28.310Z,3.03
2022-10-21T06:51:55.920Z,3.17
2022-10-21T06:54:23.654Z,3.30
2022-10-21T06:56:51.324Z,3.92
2022-10-21T06:59:18.956Z,3.85
2022-10-21T07:01:59.761Z,3.83
2022-10-21T07:04:30.498Z,3.40
2022-10-21T07:06:58.241Z,3.38
2022-10-21T07:09:25.946Z,3.05
2022-10-21T07:11:53.615Z,3.22
2022-10-21T07:14:21.264Z,3.38
2022-10-21T07:16:49.206Z,3.63
2022-10-21T07:19:17.011Z,3.88
2022-10-21T07:21:46.293Z,2.88
2022-10-21T07:24:16.354Z,2.80
2022-10-21T07:26:45.311Z,2.75
2022-10-21T07:29:12.914Z,2.70
2022-10-21T07:31:40.615Z,2.97
2022-10-21T07:34:09.044Z,2.58
2022-10-21T07:36:37.770Z,3.20
2022-10-21T07:39:08.491Z,2.97
2022-10-21T07:41:37.312Z,3.45
2022-10-21T07:44:05.617Z,2.00
2022-10-21T07:46:33.360Z,2.70
2022-10-21T07:49:01.062Z,2.05
2022-10-21T07:51:31.053Z,1.75
2022-10-21T07:54:00.206Z,2.33
2022-10-21T07:56:32.461Z,1.83
2022-10-21T07:59:01.727Z,1.77
2022-10-21T08:01:30.050Z,1.88
2022-10-21T08:04:00.682Z,1.80
2022-10-21T08:06:30.991Z,1.88
2022-10-21T08:08:58.757Z,2.05
2022-10-21T08:11:27.084Z,1.35
2022-10-21T08:13:56.715Z,1.50
2022-10-21T08:16:24.936Z,1.50
2022-10-21T08:18:53.043Z,1.50
2022-10-21T08:21:21.279Z,1.77
2022-10-21T08:23:49.119Z,1.75
2022-10-21T08:26:17.410Z,1.20
2022-10-21T08:28:45.308Z,1.42
2022-10-21T08:31:15.897Z,1.60
2022-10-21T08:33:43.789Z,1.23
2022-10-21T08:36:14.614Z,1.52
2022-10-21T08:38:42.432Z,1.60
2022-10-21T08:41:21.831Z,1.50
2022-10-21T08:43:51.141Z,1.63
2022-10-21T08:46:22.031Z,0.90
2022-10-21T08:48:52.404Z,1.13
2022-10-21T08:51:23.984Z,1.20
2022-10-21T08:53:54.169Z,1.38
2022-10-21T08:56:21.918Z,1.45
2022-10-21T08:58:51.399Z,1.70
2022-10-21T09:01:22.463Z,0.98
2022-10-21T09:03:57.500Z,0.93
2022-10-21T09:06:29.742Z,0.68
2022-10-21T09:09:01.159Z,1.30
2022-10-21T09:11:43.317Z,2.00
2022-10-21T09:17:02.261Z,1.30
2022-10-21T09:19:35.463Z,0.80
2022-10-21T09:22:29.909Z,0.90
2022-10-21T09:24:59.630Z,0.80
2022-10-21T09:27:37.955Z,0.80
2022-10-21T09:30:16.387Z,0.85
2022-10-21T09:32:49.798Z,0.88
2022-10-21T09:35:21.720Z,0.80
2022-10-21T09:37:51.816Z,0.95
2022-10-21T09:40:20.393Z,0.88
2022-10-21T09:42:50.494Z,0.80
2022-10-21T09:45:24.091Z,0.88
2022-10-21T09:47:55.986Z,1.02
2022-10-21T09:50:23.638Z,0.93
2022-10-21T09:52:56.475Z,1.10
2022-10-21T09:55:24.410Z,1.00
2022-10-21T09:57:55.269Z,0.65
2022-10-21T10:00:22.899Z,1.00
2022-10-21T10:02:50.554Z,0.75
2022-10-21T10:05:39.423Z,0.90
2022-10-21T10:08:27.678Z,1.02
2022-10-21T10:11:02.088Z,1.02
2022-10-21T10:13:31.595Z,1.00
2022-10-21T10:16:12.875Z,1.17
2022-10-21T10:18:40.720Z,1.30
2022-10-21T10:21:12.649Z,1.08
2022-10-21T10:23:44.661Z,1.15
2022-10-21T10:26:19.306Z,1.10
2022-10-21T10:28:50.465Z,1.00
2022-10-21T10:31:24.305Z,1.23
2022-10-21T10:33:58.725Z,1.30
2022-10-21T10:36:30.207Z,1.00
2022-10-21T10:38:59.392Z,1.33
2022-10-21T10:41:32.293Z,1.10
2022-10-21T10:43:59.949Z,1.05
2022-10-21T10:46:29.209Z,1.23
2022-10-21T10:48:58.348Z,1.00
2022-10-21T10:51:27.592Z,1.50
2022-10-21T10:54:04.394Z,1.73
2022-10-21T10:56:34.324Z,1.30
2022-10-21T10:59:06.126Z,1.25
2022-10-21T11:01:38.861Z,1.35
2022-10-21T11:04:11.451Z,0.90
2022-10-21T11:06:43.543Z,1.00
2022-10-21T11:09:12.724Z,1.45
2022-10-21T11:11:42.705Z,1.17
2022-10-21T11:14:15.319Z,1.02
2022-10-21T11:19:30.418Z,1.40
2022-10-21T11:22:05.796Z,1.52
2022-10-21T11:24:57.634Z,1.10
2022-10-21T11:27:38.022Z,1.00
2022-10-21T11:30:09.851Z,0.93
2022-10-21T11:32:44.172Z,0.93
2022-10-21T11:35:23.189Z,0.80
2022-10-21T11:37:57.404Z,1.10
2022-10-21T11:40:32.706Z,1.07
2022-10-21T11:43:03.622Z,0.82
2022-10-21T11:45:36.194Z,0.77
2022-10-21T11:48:08.298Z,1.10
2022-10-21T11:50:40.474Z,1.38
2022-10-21T11:53:15.869Z,0.70
2022-10-21T11:55:48.858Z,1.10
2022-10-21T11:58:24.938Z,0.90
2022-10-21T12:00:57.073Z,1.20
2022-10-21T12:03:36.976Z,0.93
2022-10-21T12:06:12.908Z,1.20
2022-10-21T12:08:45.305Z,1.00
2022-10-21T12:11:20.062Z,1.20
2022-10-21T12:13:50.340Z,0.98
2022-10-21T12:16:19.324Z,1.10
2022-10-21T12:18:51.173Z,1.90
2022-10-21T12:21:20.041Z,0.90
2022-10-21T12:23:49.182Z,0.80
2022-10-21T12:26:20.876Z,1.48
2022-10-21T12:28:51.891Z,0.70
2022-10-21T12:31:32.257Z,1.00
2022-10-21T12:33:59.885Z,0.73
2022-10-21T12:36:41.951Z,1.15
2022-10-21T12:39:12.691Z,0.95
2022-10-21T12:41:42.093Z,0.90
2022-10-21T12:44:21.952Z,1.08
2022-10-21T12:46:50.992Z,0.82
2022-10-21T12:49:23.462Z,0.85
2022-10-21T12:51:52.747Z,0.57
2022-10-21T12:54:24.313Z,0.90
2022-10-21T12:57:01.765Z,0.80
2022-10-21T12:59:31.474Z,0.75
2022-10-21T13:02:25.883Z,1.17
2022-10-21T13:04:54.562Z,1.30
2022-10-21T13:07:32.794Z,0.95
2022-10-21T13:10:15.181Z,0.70
2022-10-21T13:12:44.250Z,0.70
2022-10-21T13:15:26.710Z,0.80
2022-10-21T13:17:54.990Z,1.33
2022-10-21T13:20:41.314Z,0.77
2022-10-21T13:23:31.667Z,0.88
2022-10-21T13:26:07.200Z,1.00
2022-10-21T13:28:36.264Z,0.82
2022-10-21T13:31:04.609Z,0.60
2022-10-21T13:33:34.361Z,0.80
2022-10-21T13:36:02.985Z,0.60
2022-10-21T13:38:31.582Z,0.85
2022-10-21T13:41:00.869Z,0.75
2022-10-21T13:43:30.579Z,1.20
2022-10-21T13:46:04.317Z,0.80
2022-10-21T13:48:32.357Z,0.63
2022-10-21T13:51:10.320Z,0.45
2022-10-21T13:53:43.613Z,0.60
2022-10-21T13:56:19.589Z,0.77
2022-10-21T13:58:47.205Z,0.70
2022-10-21T14:01:18.702Z,0.50
2022-10-21T14:03:46.836Z,0.60
2022-10-21T14:06:18.221Z,0.40
2022-10-21T14:08:47.420Z,0.50
2022-10-21T14:11:17.450Z,1.30
2022-10-21T14:13:46.037Z,0.40
2022-10-21T14:16:20.116Z,0.50
2022-10-21T14:18:49.509Z,0.50
2022-10-21T14:21:19.142Z,0.40
2022-10-21T14:23:47.454Z,0.80
2022-10-21T14:26:15.227Z,0.50
2022-10-21T14:28:43.096Z,0.43
2022-10-21T14:31:12.540Z,0.40
2022-10-21T14:33:42.389Z,0.80
2022-10-21T14:36:14.992Z,0.40
2022-10-21T14:38:44.923Z,0.50
2022-10-21T14:41:16.140Z,0.60
2022-10-21T14:43:44.927Z,0.47
2022-10-21T14:46:12.614Z,0.55
2022-10-21T14:48:41.080Z,0.50
2022-10-21T14:51:11.268Z,0.60
2022-10-21T14:53:46.034Z,0.70
2022-10-21T14:56:18.247Z,0.50
2022-10-21T14:58:47.029Z,0.60
2022-10-21T15:01:16.227Z,0.60
2022-10-21T15:03:45.172Z,0.50
2022-10-21T15:06:14.329Z,0.50
2022-10-21T15:08:43.953Z,0.70
2022-10-21T15:11:23.410Z,0.63
2022-10-21T15:14:05.347Z,0.60
2022-10-21T15:16:33.059Z,1.10
2022-10-21T15:19:28.872Z,1.67
2022-10-21T15:21:58.512Z,0.77
2022-10-21T15:24:31.505Z,0.98
2022-10-21T15:27:00.873Z,1.05
2022-10-21T15:29:30.059Z,0.90
2022-10-21T15:31:58.291Z,0.63
2022-10-21T15:34:26.257Z,0.90
2022-10-21T15:36:56.209Z,1.02
2022-10-21T15:39:24.071Z,0.70
2022-10-21T15:41:55.163Z,0.70
2022-10-21T15:44:25.974Z,0.90
2022-10-21T15:46:58.197Z,0.60
2022-10-21T15:49:27.522Z,1.15
2022-10-21T15:51:55.140Z,0.70
2022-10-21T15:54:22.796Z,0.90
2022-10-21T15:56:51.331Z,1.10
2022-10-21T15:59:21.540Z,0.55
2022-10-21T16:01:49.648Z,0.77
2022-10-21T16:04:17.400Z,0.80
2022-10-21T16:06:48.261Z,0.70
2022-10-21T16:09:20.535Z,0.73
2022-10-21T16:11:58.925Z,0.70
2022-10-21T16:14:30.042Z,0.75
2022-10-21T16:16:59.131Z,1.08
2022-10-21T16:19:27.768Z,1.08
2022-10-21T16:21:55.410Z,0.80
2022-10-21T16:24:23.226Z,1.17
2022-10-21T16:26:51.370Z,0.85
2022-10-21T16:29:19.748Z,1.27
2022-10-21T16:31:48.909Z,0.70
2022-10-21T16:34:16.656Z,0.95
2022-10-21T16:36:44.292Z,0.80
2022-10-21T16:39:13.714Z,0.98
2022-10-21T16:41:41.737Z,0.75
2022-10-21T16:44:09.375Z,0.60
2022-10-21T16:46:37.712Z,0.68
2022-10-21T16:49:12.190Z,0.80
2022-10-21T16:51:41.976Z,0.75
2022-10-21T16:54:09.586Z,0.80
2022-10-21T16:56:37.224Z,1.85
2022-10-21T16:59:04.907Z,1.30
2022-10-21T17:01:32.686Z,1.15
2022-10-21T17:04:00.505Z,1.30
2022-10-21T17:06:29.545Z,1.00
2022-10-21T17:08:57.859Z,0.70
2022-10-21T17:11:27.267Z,0.98
2022-10-21T17:13:54.936Z,0.75
2022-10-21T17:16:22.851Z,0.90
2022-10-21T17:18:50.475Z,1.00
2022-10-21T17:21:20.424Z,0.90
2022-10-21T17:23:49.526Z,0.90
2022-10-21T17:26:17.460Z,1.13
2022-10-21T17:28:45.060Z,1.10
2022-10-21T17:31:15.488Z,1.92
2022-10-21T17:33:43.242Z,0.93
2022-10-21T17:36:10.864Z,1.08
2022-10-21T17:38:38.491Z,1.60
2022-10-21T17:41:07.730Z,0.93
2022-10-21T17:43:35.373Z,4.30
2022-10-21T17:46:03.306Z,6.25
2022-10-21T17:48:31.041Z,1.25
2022-10-21T17:51:00.715Z,1.67
2022-10-21T17:53:28.931Z,1.20
2022-10-21T17:55:57.182Z,1.25
2022-10-21T17:58:26.478Z,1.20
2022-10-21T18:00:56.532Z,1.00
2022-10-21T18:03:24.261Z,1.15
2022-10-21T18:05:52.152Z,1.35
2022-10-21T18:08:19.813Z,1.85
2022-10-21T18:10:52.072Z,1.05
2022-10-21T18:13:19.658Z,1.65
2022-10-21T18:15:50.272Z,2.65
2022-10-21T18:18:18.248Z,1.08
2022-10-21T18:20:45.863Z,1.85
2022-10-21T18:23:13.995Z,1.60
2022-10-21T18:25:42.074Z,2.38
2022-10-21T18:28:10.057Z,1.85
2022-10-21T18:30:42.215Z,1.70
2022-10-21T18:33:11.345Z,1.88
2022-10-21T18:35:39.153Z,1.98
2022-10-21T18:38:06.835Z,1.35
2022-10-21T18:40:34.685Z,1.55
2022-10-21T18:43:02.302Z,1.85
2022-10-21T18:45:30.001Z,1.48
2022-10-21T18:47:57.631Z,1.77
2022-10-21T18:50:26.735Z,1.73
2022-10-21T18:52:54.382Z,2.33
2022-10-21T18:55:22.006Z,1.70
2022-10-21T18:57:49.699Z,1.77
2022-10-21T19:00:17.645Z,1.63
2022-10-21T19:02:45.263Z,2.50
2022-10-21T19:05:12.976Z,1.98
2022-10-21T19:07:42.725Z,2.65
2022-10-21T19:10:10.604Z,1.70
2022-10-21T19:12:38.224Z,1.77
2022-10-21T19:15:06.378Z,1.55
2022-10-21T19:17:34.169Z,1.85
2022-10-21T19:20:03.238Z,2.28
2022-10-21T19:22:31.434Z,1.50
2022-10-21T19:25:00.412Z,2.38
2022-10-21T19:27:28.118Z,1.50
2022-10-21T19:29:55.748Z,1.90
2022-10-21T19:32:23.376Z,2.15
2022-10-21T19:34:51.087Z,2.08
2022-10-21T19:37:18.720Z,1.77
2022-10-21T19:39:46.478Z,2.00
2022-10-21T19:42:15.983Z,2.13
2022-10-21T19:44:43.804Z,2.40
2022-10-21T19:47:11.650Z,2.47
2022-10-21T19:49:39.484Z,2.40
2022-10-21T19:52:07.115Z,2.92
2022-10-21T19:54:34.787Z,2.35
2022-10-21T19:57:02.637Z,1.92
2022-10-21T19:59:31.801Z,2.50
2022-10-21T20:01:59.438Z,2.83
2022-10-21T20:04:27.158Z,3.08
2022-10-21T20:06:54.724Z,3.10
2022-10-21T20:09:22.427Z,2.60
2022-10-21T20:11:49.989Z,2.90
2022-10-21T20:14:18.575Z,2.38
2022-10-21T20:16:48.847Z,2.25
2022-10-21T20:19:16.637Z,2.45
2022-10-21T20:21:44.647Z,1.95
2022-10-21T20:24:14.137Z,2.30
2022-10-21T20:26:42.777Z,1.77
2022-10-21T20:29:11.213Z,2.58
2022-10-21T20:31:38.873Z,1.88
2022-10-21T20:34:07.861Z,2.42
2022-10-21T20:36:35.442Z,2.70
2022-10-21T20:39:03.470Z,2.70
2022-10-21T20:41:34.141Z,2.20
2022-10-21T20:44:01.998Z,1.88
2022-10-21T20:46:32.530Z,2.20
2022-10-21T20:49:00.167Z,2.20
2022-10-21T20:51:30.037Z,2.13
2022-10-21T20:53:58.482Z,2.55
2022-10-21T20:56:27.196Z,2.28
2022-10-21T20:58:54.928Z,2.65
2022-10-21T21:01:25.357Z,2.60
2022-10-21T21:03:53.692Z,2.75
2022-10-21T21:06:22.025Z,2.83
2022-10-21T21:09:08.610Z,2.92
2022-10-21T21:11:39.084Z,2.60
2022-10-21T21:14:06.939Z,2.53
2022-10-21T21:16:34.566Z,2.97
2022-10-21T21:19:03.217Z,2.95
2022-10-21T21:21:31.610Z,2.80
2022-10-21T21:24:00.969Z,2.88
2022-10-21T21:26:29.691Z,2.70
2022-10-21T21:28:57.329Z,2.47
2022-10-21T21:31:25.733Z,3.05
2022-10-21T21:33:53.350Z,3.10
2022-10-21T21:36:21.757Z,3.63
2022-10-21T21:38:50.327Z,2.67
2022-10-21T21:41:19.408Z,3.17
2022-10-21T21:43:48.132Z,3.05
2022-10-21T21:46:22.741Z,2.53
2022-10-21T21:48:54.879Z,3.17
2022-10-21T21:51:23.988Z,3.30
2022-10-21T21:53:51.662Z,2.55
2022-10-21T21:56:21.036Z,2.90
2022-10-21T21:58:48.706Z,2.83
2022-10-21T22:01:17.742Z,2.63
2022-10-21T22:03:47.057Z,2.47
2022-10-21T22:06:15.061Z,3.13
2022-10-21T22:08:43.266Z,3.10
2022-10-21T22:11:12.108Z,2.30
2022-10-21T22:13:41.778Z,3.08
2022-10-21T22:16:10.960Z,3.53
2022-10-21T22:18:38.900Z,2.55
2022-10-21T22:21:07.243Z,3.13
2022-10-21T22:23:35.167Z,2.72
2022-10-21T22:26:02.937Z,3.75
2022-10-21T22:28:30.533Z,2.70
2022-10-21T22:31:00.382Z,2.78
2022-10-21T22:33:28.424Z,2.90
2022-10-21T22:35:56.246Z,2.75
2022-10-21T22:38:24.171Z,2.72
2022-10-21T22:40:53.357Z,2.80
2022-10-21T22:43:20.963Z,2.75
2022-10-21T22:45:48.616Z,2.78
2022-10-21T22:48:17.657Z,2.70
2022-10-21T22:50:45.424Z,2.35
2022-10-21T22:53:13.240Z,2.78
2022-10-21T22:55:41.091Z,3.13
2022-10-21T22:58:16.299Z,2.30
2022-10-21T23:00:47.153Z,2.50
2022-10-21T23:03:14.799Z,2.83
2022-10-21T23:05:46.825Z,2.70
2022-10-21T23:08:14.532Z,2.67
2022-10-21T23:10:42.135Z,3.63
2022-10-21T23:13:09.826Z,2.20
2022-10-21T23:15:37.452Z,3.35
2022-10-21T23:18:05.203Z,3.20
2022-10-21T23:20:32.944Z,2.30
2022-10-21T23:23:01.975Z,2.30
2022-10-21T23:25:29.712Z,2.80
2022-10-21T23:27:57.741Z,2.25
2022-10-21T23:30:25.389Z,2.42
2022-10-21T23:32:53.033Z,4.15
2022-10-21T23:35:20.873Z,3.03
2022-10-21T23:37:48.553Z,1.90
2022-10-21T23:40:17.619Z,2.70
2022-10-21T23:42:45.256Z,2.28
2022-10-21T23:45:13.032Z,2.55
2022-10-21T23:47:40.995Z,2.45
2022-10-21T23:50:09.446Z,4.10
2022-10-21T23:52:37.089Z,3.28
2022-10-21T23:55:05.047Z,2.70
2022-10-21T23:57:36.367Z,2.72
